createdAt,value
2023-04-22T00:00:42.989Z,14.60
2023-04-22T00:03:12.955Z,14.62
2023-04-22T00:05:45.083Z,14.64
2023-04-22T00:08:15.027Z,14.66
2023-04-22T00:10:44.947Z,14.67
2023-04-22T00:13:17.383Z,14.69
2023-04-22T00:15:48.649Z,14.70
2023-04-22T00:18:19.312Z,14.70
2023-04-22T00:20:49.205Z,14.69
2023-04-22T00:23:19.375Z,14.69
2023-04-22T00:25:49.293Z,14.67
2023-04-22T00:28:22.556Z,14.63
2023-04-22T00:30:52.604Z,14.55
2023-04-22T00:33:22.528Z,14.44
2023-04-22T00:35:52.414Z,14.40
2023-04-22T00:38:22.276Z,14.40
2023-04-22T00:40:52.174Z,14.39
2023-04-22T00:43:24.630Z,14.33
2023-04-22T00:45:54.446Z,14.23
2023-04-22T00:48:25.678Z,14.16
2023-04-22T00:50:57.294Z,14.14
2023-04-22T00:53:27.123Z,14.14
2023-04-22T00:56:00.098Z,14.17
2023-04-22T00:58:33.595Z,14.14
2023-04-22T01:01:04.126Z,14.12
2023-04-22T01:03:36.188Z,14.07
2023-04-22T01:06:06.202Z,13.96
2023-04-22T01:08:37.122Z,13.89
2023-04-22T01:11:07.021Z,13.81
2023-04-22T01:13:39.560Z,13.75
2023-04-22T01:16:12.112Z,13.68
2023-04-22T01:18:45.144Z,13.60
2023-04-22T01:21:15.102Z,13.54
2023-04-22T01:23:48.054Z,13.50
2023-04-22T01:26:17.984Z,13.45
2023-04-22T01:28:48.708Z,13.40
2023-04-22T01:31:18.709Z,13.38
2023-04-22T01:33:48.885Z,13.38
2023-04-22T01:36:19.665Z,13.39
2023-04-22T01:38:52.428Z,13.39
2023-04-22T01:41:22.581Z,13.40
2023-04-22T01:43:52.825Z,13.41
2023-04-22T01:46:23.143Z,13.39
2023-04-22T01:48:53.299Z,13.38
2023-04-22T01:51:23.850Z,13.41
2023-04-22T01:53:57.189Z,13.43
2023-04-22T01:56:30.032Z,13.44
2023-04-22T01:58:59.875Z,13.45
2023-04-22T02:01:29.833Z,13.44
2023-04-22T02:03:59.702Z,13.42
2023-04-22T02:06:30.061Z,13.43
2023-04-22T02:09:02.485Z,13.43
2023-04-22T02:11:32.337Z,13.41
2023-04-22T02:14:02.160Z,13.41
2023-04-22T02:16:32.155Z,13.41
2023-04-22T02:19:02.052Z,13.37
2023-04-22T02:21:32.858Z,13.37
2023-04-22T02:24:05.305Z,13.35
2023-04-22T02:26:35.133Z,13.32
2023-04-22T02:29:04.996Z,13.28
2023-04-22T02:31:34.883Z,13.25
2023-04-22T02:34:04.753Z,13.21
2023-04-22T02:36:35.100Z,13.19
2023-04-22T02:39:08.442Z,13.16
2023-04-22T02:41:38.456Z,13.13
2023-04-22T02:44:08.348Z,13.09
2023-04-22T02:46:38.223Z,13.06
2023-04-22T02:49:08.087Z,13.05
2023-04-22T02:51:37.955Z,12.96
2023-04-22T02:54:11.303Z,12.92
2023-04-22T02:56:42.188Z,12.84
2023-04-22T02:59:12.064Z,12.82
2023-04-22T03:01:41.947Z,12.78
2023-04-22T03:04:12.546Z,12.75
2023-04-22T03:06:42.531Z,12.67
2023-04-22T03:09:15.050Z,12.63
2023-04-22T03:11:45.708Z,12.56
2023-04-22T03:14:15.559Z,12.51
2023-04-22T03:16:45.422Z,12.48
2023-04-22T03:19:15.273Z,12.46
2023-04-22T03:21:45.237Z,12.46
2023-04-22T03:24:17.657Z,12.46
2023-04-22T03:26:47.514Z,12.45
2023-04-22T03:29:17.416Z,12.42
2023-04-22T03:31:47.268Z,12.41
2023-04-22T03:34:17.675Z,12.39
2023-04-22T03:36:47.477Z,12.37
2023-04-22T03:39:20.123Z,12.34
2023-04-22T03:41:49.968Z,12.32
2023-04-22T03:44:19.821Z,12.27
2023-04-22T03:46:49.661Z,12.25
2023-04-22T03:49:19.896Z,12.18
2023-04-22T03:51:49.791Z,12.12
2023-04-22T03:54:23.123Z,12.05
2023-04-22T03:56:57.586Z,12.01
2023-04-22T03:59:27.404Z,11.99
2023-04-22T04:01:57.248Z,11.98
2023-04-22T04:04:29.639Z,11.97
2023-04-22T04:07:00.021Z,11.98
2023-04-22T04:09:33.985Z,11.97
2023-04-22T04:12:03.784Z,11.94
2023-04-22T04:14:33.639Z,11.93
2023-04-22T04:17:03.900Z,11.92
2023-04-22T04:19:33.820Z,11.90
2023-04-22T04:22:03.622Z,11.91
2023-04-22T04:24:36.927Z,11.89
2023-04-22T04:27:07.935Z,11.89
2023-04-22T04:29:38.118Z,11.88
2023-04-22T04:32:08.739Z,11.85
2023-04-22T04:34:38.705Z,11.80
2023-04-22T04:37:08.531Z,11.73
2023-04-22T04:39:42.695Z,11.68
2023-04-22T04:42:14.649Z,11.66
2023-04-22T04:44:44.528Z,11.66
2023-04-22T04:47:15.289Z,11.73
2023-04-22T04:49:46.385Z,11.80
2023-04-22T04:52:16.979Z,11.95
2023-04-22T04:54:51.031Z,12.11
2023-04-22T04:57:20.906Z,12.34
2023-04-22T04:59:50.790Z,12.57
2023-04-22T05:02:20.843Z,12.75
2023-04-22T05:04:50.911Z,12.94
2023-04-22T05:07:20.797Z,13.17
2023-04-22T05:09:53.228Z,13.40
2023-04-22T05:12:23.047Z,13.61
2023-04-22T05:14:52.805Z,13.75
2023-04-22T05:17:23.712Z,13.84
2023-04-22T05:19:53.527Z,13.86
2023-04-22T05:22:23.822Z,13.83
2023-04-22T05:24:56.305Z,13.72
2023-04-22T05:27:26.252Z,13.54
2023-04-22T05:29:56.334Z,13.44
2023-04-22T05:32:26.401Z,13.45
2023-04-22T05:34:56.411Z,13.51
2023-04-22T05:37:26.295Z,13.58
2023-04-22T05:39:59.528Z,13.62
2023-04-22T05:42:29.678Z,13.73
2023-04-22T05:44:59.541Z,13.78
2023-04-22T05:47:29.426Z,13.80
2023-04-22T05:49:59.387Z,13.81
2023-04-22T05:52:29.387Z,13.91
2023-04-22T05:55:02.857Z,14.12
2023-04-22T05:57:37.911Z,14.27
2023-04-22T06:00:09.455Z,14.35
2023-04-22T06:02:40.354Z,14.36
2023-04-22T06:05:11.332Z,14.34
2023-04-22T06:07:41.199Z,14.32
2023-04-22T06:10:14.121Z,14.26
2023-04-22T06:12:46.256Z,14.21
2023-04-22T06:15:16.099Z,14.20
2023-04-22T06:17:45.959Z,14.18
2023-04-22T06:20:15.941Z,14.16
2023-04-22T06:22:46.509Z,14.14
2023-04-22T06:25:18.982Z,14.12
2023-04-22T06:27:48.839Z,14.13
2023-04-22T06:30:18.989Z,14.14
2023-04-22T06:32:52.126Z,14.19
2023-04-22T06:35:21.991Z,14.22
2023-04-22T06:37:52.045Z,14.25
2023-04-22T06:40:24.701Z,14.31
2023-04-22T06:42:55.354Z,14.40
2023-04-22T06:45:25.152Z,14.55
2023-04-22T06:47:56.089Z,14.69
2023-04-22T06:50:26.049Z,14.83
2023-04-22T06:52:56.457Z,15.00
2023-04-22T06:55:34.892Z,15.15
2023-04-22T06:58:04.818Z,15.31
2023-04-22T07:00:34.620Z,15.36
2023-04-22T07:03:06.059Z,15.41
2023-04-22T07:05:37.785Z,15.48
2023-04-22T07:08:08.413Z,15.51
2023-04-22T07:10:40.856Z,15.55
2023-04-22T07:13:10.717Z,15.57
2023-04-22T07:15:41.035Z,15.59
2023-04-22T07:18:11.220Z,15.62
2023-04-22T07:20:41.152Z,15.63
2023-04-22T07:23:10.977Z,15.67
2023-04-22T07:25:43.530Z,15.67
2023-04-22T07:28:14.627Z,15.70
2023-04-22T07:30:44.507Z,15.73
2023-04-22T07:33:14.312Z,15.76
2023-04-22T07:35:44.169Z,15.78
2023-04-22T07:38:14.722Z,15.79
2023-04-22T07:40:47.201Z,15.81
2023-04-22T07:43:17.130Z,15.84
2023-04-22T07:45:50.429Z,15.86
2023-04-22T07:48:21.894Z,15.88
2023-04-22T07:50:51.750Z,15.90
2023-04-22T07:53:26.493Z,15.88
2023-04-22T07:56:02.166Z,15.93
2023-04-22T07:58:32.146Z,15.99
2023-04-22T08:01:02.024Z,16.07
2023-04-22T08:03:38.758Z,16.12
2023-04-22T08:06:09.024Z,16.20
2023-04-22T08:08:38.879Z,16.25
2023-04-22T08:11:11.340Z,16.33
2023-04-22T08:13:41.185Z,16.37
2023-04-22T08:16:11.032Z,16.40
2023-04-22T08:18:40.925Z,16.47
2023-04-22T08:21:11.093Z,16.55
2023-04-22T08:23:41.080Z,16.60
2023-04-22T08:26:18.455Z,16.69
2023-04-22T08:28:48.325Z,16.81
2023-04-22T08:31:18.233Z,16.84
2023-04-22T08:33:48.177Z,16.87
2023-04-22T08:36:18.890Z,16.98
2023-04-22T08:38:50.046Z,17.04
2023-04-22T08:41:24.768Z,17.10
2023-04-22T08:43:56.188Z,17.25
2023-04-22T08:46:28.956Z,17.37
2023-04-22T08:49:04.051Z,17.50
2023-04-22T08:51:35.214Z,17.63
2023-04-22T08:54:14.391Z,17.76
2023-04-22T08:56:51.389Z,17.93
2023-04-22T08:59:24.673Z,18.06
2023-04-22T09:03:37.612Z,18.13
2023-04-22T12:17:16.602Z,22.07
2023-04-22T12:19:50.246Z,22.11
2023-04-22T12:22:27.434Z,22.09
2023-04-22T12:24:58.905Z,22.06
2023-04-22T12:27:28.871Z,22.05
2023-04-22T12:30:00.210Z,22.00
2023-04-22T12:32:32.686Z,21.99
2023-04-22T12:35:07.045Z,22.01
2023-04-22T12:37:36.858Z,22.02
2023-04-22T12:40:08.140Z,22.02
2023-04-22T12:42:37.970Z,22.01
2023-04-22T12:45:09.282Z,21.99
2023-04-22T12:47:41.852Z,21.95
2023-04-22T12:50:12.250Z,21.94
2023-04-22T12:52:42.155Z,21.94
2023-04-22T12:55:12.256Z,21.94
2023-04-22T13:22:10.349Z,20.12
2023-04-22T13:24:40.121Z,19.85
2023-04-22T13:27:10.094Z,19.73
2023-04-22T13:29:43.960Z,19.60
2023-04-22T13:32:27.242Z,19.46
2023-04-22T14:15:57.060Z,17.85
2023-04-22T14:18:27.468Z,17.77
2023-04-22T14:20:58.907Z,17.70
2023-04-22T14:23:28.701Z,17.67
2023-04-22T14:26:01.167Z,17.69
2023-04-22T14:28:34.950Z,17.67
2023-04-22T14:31:10.397Z,17.63
2023-04-22T14:33:41.781Z,17.44
2023-04-22T14:38:43.524Z,17.10
2023-04-22T14:41:19.196Z,16.90
2023-04-22T14:43:49.023Z,16.81
2023-04-22T14:46:21.479Z,16.77
2023-04-22T14:48:51.317Z,16.74
2023-04-22T14:51:25.043Z,16.66
2023-04-22T14:53:54.926Z,16.62
2023-04-22T14:56:25.510Z,16.61
2023-04-22T14:58:55.328Z,16.70
2023-04-22T15:01:33.045Z,16.81
2023-04-22T15:04:03.140Z,16.92
2023-04-22T15:06:33.066Z,16.95
2023-04-22T15:09:02.867Z,17.00
2023-04-22T15:11:32.658Z,17.01
2023-04-22T15:14:02.518Z,17.00
2023-04-22T15:16:35.060Z,16.97
2023-04-22T15:19:05.024Z,16.90
2023-04-22T15:21:34.974Z,16.87
2023-04-22T15:24:09.382Z,16.78
2023-04-22T15:26:40.807Z,16.67
2023-04-22T15:29:10.861Z,16.56
2023-04-22T15:31:43.633Z,16.40
2023-04-22T15:34:13.548Z,16.26
2023-04-22T15:36:43.641Z,16.12
2023-04-22T15:39:14.284Z,16.01
2023-04-22T15:41:44.739Z,15.87
2023-04-22T15:44:16.388Z,15.81
2023-04-22T15:46:49.483Z,15.69
2023-04-22T15:49:19.362Z,15.61
2023-04-22T15:51:49.244Z,15.53
2023-04-22T15:54:19.096Z,15.45
2023-04-22T15:56:48.983Z,15.40
2023-04-22T15:59:18.896Z,15.32
2023-04-22T16:01:52.245Z,15.25
2023-04-22T16:04:23.168Z,15.22
2023-04-22T16:06:53.634Z,15.19
2023-04-22T16:09:23.472Z,15.11
2023-04-22T16:11:53.848Z,15.08
2023-04-22T16:14:23.633Z,15.03
2023-04-22T16:41:51.362Z,14.64
2023-04-22T16:44:33.524Z,14.67
2023-04-22T16:47:09.601Z,14.58
2023-04-22T16:49:42.565Z,14.50
2023-04-22T16:52:13.632Z,14.47
2023-04-22T16:54:46.312Z,14.48
2023-04-22T16:57:18.781Z,14.50
2023-04-22T16:59:48.572Z,14.55
2023-04-22T17:02:19.678Z,14.54
2023-04-22T17:04:51.728Z,14.52
2023-04-22T17:07:21.542Z,14.47
2023-04-22T17:09:51.807Z,14.46
2023-04-22T17:18:09.027Z,14.18
2023-04-22T17:20:39.064Z,14.16
2023-04-22T17:23:20.165Z,14.14
2023-04-22T17:25:49.958Z,14.07
2023-04-22T17:28:22.243Z,13.97
2023-04-22T17:30:55.174Z,13.80
2023-04-22T17:33:30.411Z,13.67
2023-04-22T17:38:47.844Z,13.52
2023-04-22T17:46:52.180Z,13.32
2023-04-22T17:49:29.986Z,13.18
2023-04-22T17:51:59.829Z,13.12
2023-04-22T17:54:29.722Z,13.09
2023-04-22T17:56:59.845Z,13.09
2023-04-22T17:59:29.705Z,13.06
2023-04-22T18:02:00.318Z,13.03
2023-04-22T18:04:34.526Z,13.01
2023-04-22T18:07:04.432Z,13.03
2023-04-22T18:09:34.263Z,13.03
2023-04-22T18:12:04.145Z,13.08
2023-04-22T18:14:34.272Z,13.12
2023-04-22T18:17:04.504Z,13.10
2023-04-22T18:19:39.626Z,13.09
2023-04-22T18:22:09.611Z,13.10
2023-04-22T18:24:39.739Z,13.11
2023-04-22T18:27:10.203Z,13.05
2023-04-22T18:29:40.280Z,13.03
2023-04-22T18:32:10.688Z,13.03
2023-04-22T18:34:43.433Z,13.03
2023-04-22T18:37:13.440Z,13.03
2023-04-22T18:39:43.280Z,13.04
2023-04-22T18:42:13.269Z,13.00
2023-04-22T18:44:43.365Z,12.98
2023-04-22T18:47:13.471Z,12.93
2023-04-22T18:49:48.229Z,12.91
2023-04-22T18:52:18.574Z,12.88
2023-04-22T18:54:48.638Z,12.87
2023-04-22T18:57:18.549Z,12.88
2023-04-22T18:59:48.717Z,12.88
2023-04-22T19:02:19.222Z,12.91
2023-04-22T19:04:51.743Z,12.91
2023-04-22T19:07:21.550Z,12.93
2023-04-22T19:09:51.471Z,12.95
2023-04-22T19:12:21.363Z,12.94
2023-04-22T19:14:52.740Z,12.94
2023-04-22T19:17:22.661Z,12.95
2023-04-22T19:19:55.335Z,12.95
2023-04-22T19:22:25.334Z,12.90
2023-04-22T19:24:55.240Z,12.84
2023-04-22T19:27:25.046Z,12.84
2023-04-22T19:29:55.156Z,12.86
2023-04-22T19:32:25.089Z,12.92
2023-04-22T19:34:57.604Z,12.95
2023-04-22T19:37:27.441Z,12.93
2023-04-22T19:39:57.788Z,12.95
2023-04-22T19:42:27.659Z,12.99
2023-04-22T19:45:00.569Z,12.99
2023-04-22T19:47:31.183Z,12.98
2023-04-22T19:50:04.310Z,12.99
2023-04-22T19:52:35.870Z,13.02
2023-04-22T19:55:11.688Z,13.08
2023-04-22T19:57:43.479Z,13.15
2023-04-22T20:00:15.126Z,13.18
2023-04-22T20:02:45.443Z,13.21
2023-04-22T20:05:19.492Z,13.17
2023-04-22T20:07:50.114Z,13.17
2023-04-22T20:10:22.903Z,13.20
2023-04-22T20:12:53.272Z,13.23
2023-04-22T20:15:23.499Z,13.27
2023-04-22T20:17:54.275Z,13.34
2023-04-22T20:20:27.737Z,13.37
2023-04-22T20:23:00.456Z,13.40
2023-04-22T20:25:31.911Z,13.39
2023-04-22T20:28:01.942Z,13.39
2023-04-22T20:30:32.177Z,13.39
2023-04-22T20:33:02.280Z,13.35
2023-04-22T20:35:36.838Z,13.33
2023-04-22T20:38:07.062Z,13.29
2023-04-22T20:40:37.272Z,13.23
2023-04-22T20:43:07.256Z,13.21
2023-04-22T20:45:40.391Z,13.21
2023-04-22T20:48:10.276Z,13.23
2023-04-22T20:50:42.713Z,13.21
2023-04-22T20:53:12.771Z,13.21
2023-04-22T20:55:42.623Z,13.19
2023-04-22T20:58:12.458Z,13.18
2023-04-22T21:00:42.313Z,13.19
2023-04-22T21:03:12.859Z,13.21
2023-04-22T21:05:46.868Z,13.20
2023-04-22T21:08:24.523Z,13.21
2023-04-22T21:10:56.473Z,13.21
2023-04-22T21:13:27.611Z,13.18
2023-04-22T21:16:01.456Z,13.15
2023-04-22T21:18:32.554Z,13.10
2023-04-22T21:21:06.316Z,13.05
2023-04-22T21:23:36.746Z,12.97
2023-04-22T21:26:07.884Z,12.89
2023-04-22T21:28:39.313Z,12.84
2023-04-22T21:31:10.179Z,12.82
2023-04-22T21:33:40.093Z,12.82
2023-04-22T21:52:20.968Z,12.63
2023-04-22T21:54:50.860Z,12.60
2023-04-22T21:57:20.680Z,12.56
2023-04-22T21:59:50.632Z,12.54
2023-04-22T22:02:21.134Z,12.51
2023-04-22T22:04:53.520Z,12.48
2023-04-22T22:07:27.112Z,12.42
2023-04-22T22:09:57.285Z,12.40
2023-04-22T22:12:27.102Z,12.38
2023-04-22T22:14:57.005Z,12.38
2023-04-22T22:17:28.061Z,12.33
2023-04-22T22:19:59.060Z,12.32
2023-04-22T22:22:32.406Z,12.31
2023-04-22T22:25:04.012Z,12.28
2023-04-22T22:27:33.926Z,12.25
2023-04-22T22:30:03.765Z,12.24
2023-04-22T22:32:33.962Z,12.23
2023-04-22T22:35:04.193Z,12.21
2023-04-22T22:37:37.554Z,12.19
2023-04-22T22:40:09.029Z,12.16
2023-04-22T22:42:39.113Z,12.12
2023-04-22T22:45:10.768Z,12.09
2023-04-22T22:47:42.349Z,12.04
2023-04-22T22:50:14.955Z,12.00
2023-04-22T22:52:47.596Z,11.96
2023-04-22T22:55:17.514Z,11.90
2023-04-22T22:57:47.357Z,11.88
2023-04-22T23:00:17.940Z,11.83
2023-04-22T23:02:48.142Z,11.78
2023-04-22T23:05:18.094Z,11.78
2023-04-22T23:07:52.867Z,11.77
2023-04-22T23:10:22.874Z,11.70
2023-04-22T23:12:52.677Z,11.69
2023-04-22T23:15:22.743Z,11.68
2023-04-22T23:17:53.325Z,11.65
2023-04-22T23:20:25.714Z,11.63
2023-04-22T23:22:59.314Z,11.60
2023-04-22T23:25:30.297Z,11.59
2023-04-22T23:28:06.440Z,11.56
2023-04-22T23:30:39.772Z,11.54
2023-04-22T23:33:17.134Z,11.50
2023-04-22T23:35:54.433Z,11.48
